Time,TemperatureF,DewpointF,PressureIn,WindDirection,WindDirectionDegrees,WindSpeedMPH,WindSpeedGustMPH,Humidity,HourlyPrecipIn,Conditions,Clouds,dailyrainin,SoftwareType,DateUTC
2013-03-20 00:00:00,40.7,11.6,30.00,NNW,329,9.2,9.2,30,0.00,CLR,SCT,0.01,WeatherDisplay:10.37,2013-03-20 04:00:00,
2013-03-20 00:01:00,40.8,11.7,30.00,NW,323,8.1,8.1,30,0.00,RA,SCT,0.00,WeatherDisplay:10.37,2013-03-20 04:01:00,
2013-03-20 00:06:00,40.6,11.5,30.00,NNW,337,9.2,9.2,30,0.00,RA,SCT,0.00,WeatherDisplay:10.37,2013-03-20 04:06:00,
2013-03-20 00:11:00,40.5,11.4,30.00,WSW,253,8.1,8.1,30,0.00,CLR,SCT,0.00,WeatherDisplay:10.37,2013-03-20 04:11:00,
2013-03-20 00:16:00,40.4,11.3,30.00,NW,315,8.1,8.1,30,0.00,CLR,SCT,0.00,WeatherDisplay:10.37,2013-03-20 04:16:00,
2013-03-20 00:21:00,40.3,12.0,30.01,North,356,6.7,6.7,31,0.00,CLR,SCT,0.00,WeatherDisplay:10.37,2013-03-20 04:21:00,
2013-03-20 00:26:00,40.2,11.9,30.01,West,277,9.2,9.2,31,0.00,CLR,SCT,0.00,WeatherDisplay:10.37,2013-03-20 04:26:00,
2013-03-20 00:31:00,40.1,12.5,30.01,North,357,9.2,9.2,32,0.00,CLR,SCT,0.00,WeatherDisplay:10.37,2013-03-20 04:31:00,
2013-03-20 00:36:00,40.0,11.7,30.01,North,352,9.2,9.2,31,0.00,CLR,SCT,0.00,WeatherDisplay:10.37,2013-03-20 04:36:00,
2013-03-20 00:41:00,39.8,12.3,30.01,NNE,18,5.8,5.8,32,0.00,CLR,SCT,0.00,WeatherDisplay:10.37,2013-03-20 04:41:00,
2013-03-20 00:46:00,39.7,12.2,30.01,North,352,5.8,5.8,32,0.00,CLR,SCT,0.00,WeatherDisplay:10.37,2013-03-20 04:46:00,
2013-03-20 00:51:00,39.6,12.1,30.01,ENE,68,6.9,6.9,32,0.00,CLR,SCT,0.00,WeatherDisplay:10.37,2013-03-20 04:51:00,
2013-03-20 00:56:00,39.4,11.9,30.01,West,281,5.8,5.8,32,0.00,CLR,SCT,0.00,WeatherDisplay:10.37,2013-03-20 04:56:00,
2013-03-20 01:01:00,39.5,12.7,30.01,NE,42,4.6,4.6,33,0.00,CLR,SCT,0.00,WeatherDisplay:10.37,2013-03-20 05:01:00,
2013-03-20 01:06:00,39.4,12.6,30.01,West,277,10.4,10.4,33,0.00,CLR,SCT,0.00,WeatherDisplay:10.37,2013-03-20 05:06:00,
2013-03-20 01:11:00,39.3,12.5,30.01,NNW,343,9.2,9.2,33,0.00,CLR,SCT,0.00,WeatherDisplay:10.37,2013-03-20 05:11:00,
2013-03-20 01:16:00,39.2,12.4,30.01,NW,322,9.2,9.2,33,0.00,CLR,SCT,0.00,WeatherDisplay:10.37,2013-03-20 05:16:00,
2013-03-20 01:21:00,39.1,12.4,30.01,NE,37,6.9,6.9,33,0.00,CLR,SCT,0.00,WeatherDisplay:10.37,2013-03-20 05:21:00,
2013-03-20 01:27:00,38.9,12.2,30.01,North,349,5.8,5.8,33,0.00,CLR,SCT,0.00,WeatherDisplay:10.37,2013-03-20 05:27:00,
2013-03-20 01:32:00,39.0,12.9,30.02,NW,320,10.0,10.0,34,0.00,CLR,SCT,0.00,WeatherDisplay:10.37,2013-03-20 05:32:00,
2013-03-20 01:37:00,38.9,12.9,30.01,NW,326,12.7,12.7,34,0.00,CLR,SCT,0.00,WeatherDisplay:10.37,2013-03-20 05:37:00,
2013-03-20 01:42:00,38.8,12.8,30.01,ENE,68,10.4,10.4,34,0.00,CLR,SCT,0.00,WeatherDisplay:10.37,2013-03-20 05:42:00,
2013-03-20 01:47:00,38.6,12.6,30.01,ENE,73,8.1,8.1,34,0.00,CLR,SCT,0.00,WeatherDisplay:10.37,2013-03-20 05:47:00,
2013-03-20 01:52:00,38.4,12.4,30.02,NNE,25,0.0,0.0,34,0.00,CLR,SCT,0.00,WeatherDisplay:10.37,2013-03-20 05:52:00,
2013-03-20 01:57:00,38.4,12.4,30.02,NNW,340,3.5,3.5,34,0.00,CLR,SCT,0.00,WeatherDisplay:10.37,2013-03-20 05:57:00,
2013-03-20 02:02:00,38.3,12.3,30.02,NE,40,8.1,8.1,34,0.00,CLR,SCT,0.00,WeatherDisplay:10.37,2013-03-20 06:02:00,
2013-03-20 02:07:00,38.1,12.1,30.02,NE,44,5.8,5.8,34,0.00,CLR,SCT,0.00,WeatherDisplay:10.37,2013-03-20 06:07:00,
2013-03-20 02:12:00,38.2,12.2,30.02,NW,322,9.2,9.2,34,0.00,CLR,SCT,0.00,WeatherDisplay:10.37,2013-03-20 06:12:00,
2013-03-20 02:18:00,38.2,12.2,30.02,NNW,346,9.2,9.2,34,0.00,CLR,SCT,0.00,WeatherDisplay:10.37,2013-03-20 06:18:00,
2013-03-20 02:23:00,38.0,12.7,30.02,NW,313,5.8,5.8,35,0.00,CLR,SCT,0.00,WeatherDisplay:10.37,2013-03-20 06:23:00,
2013-03-20 02:28:00,38.0,13.4,30.02,NW,319,3.5,3.5,36,0.00,CLR,SCT,0.00,WeatherDisplay:10.37,2013-03-20 06:28:00,
2013-03-20 02:33:00,37.8,13.8,30.02,North,11,10.4,10.4,37,0.00,CLR,SCT,0.00,WeatherDisplay:10.37,2013-03-20 06:33:00,
2013-03-20 02:38:00,37.6,13.6,30.02,East,97,2.3,2.3,37,0.00,CLR,SCT,0.00,WeatherDisplay:10.37,2013-03-20 06:38:00,
2013-03-20 02:43:00,37.6,13.6,30.02,NE,37,3.5,3.5,37,0.00,CLR,SCT,0.00,WeatherDisplay:10.37,2013-03-20 06:43:00,
2013-03-20 02:48:00,37.5,14.1,30.02,ENE,66,4.6,4.6,38,0.00,CLR,SCT,0.00,WeatherDisplay:10.37,2013-03-20 06:48:00,
2013-03-20 02:53:00,37.4,14.1,30.02,NNW,340,4.6,4.6,38,0.00,CLR,SCT,0.00,WeatherDisplay:10.37,2013-03-20 06:53:00,
2013-03-20 02:58:00,37.3,14.6,30.02,North,1,3.5,3.5,39,0.00,CLR,SCT,0.00,WeatherDisplay:10.37,2013-03-20 06:58:00,
2013-03-20 03:03:00,37.4,14.6,30.01,WNW,289,10.4,10.4,39,0.00,CLR,SCT,0.00,WeatherDisplay:10.37,2013-03-20 07:03:00,
2013-03-20 03:08:00,37.1,14.4,30.01,ENE,61,4.6,4.6,39,0.00,CLR,SCT,0.00,WeatherDisplay:10.37,2013-03-20 07:08:00,
2013-03-20 03:13:00,36.9,14.2,30.01,NNE,27,5.8,5.8,39,0.00,CLR,SCT,0.00,WeatherDisplay:10.37,2013-03-20 07:13:00,
2013-03-20 03:18:00,36.9,14.2,30.01,ENE,59,3.5,3.5,39,0.00,CLR,SCT,0.00,WeatherDisplay:10.37,2013-03-20 07:18:00,
2013-03-20 03:23:00,36.9,14.8,30.01,NE,47,0.0,0.0,40,0.00,CLR,SCT,0.00,WeatherDisplay:10.37,2013-03-20 07:23:00,
2013-03-20 03:28:00,36.8,14.7,30.01,North,359,3.7,3.7,40,0.00,CLR,SCT,0.00,WeatherDisplay:10.37,2013-03-20 07:28:00,
2013-03-20 03:33:00,36.8,14.7,30.01,NNE,16,6.9,6.9,40,0.00,CLR,SCT,0.00,WeatherDisplay:10.37,2013-03-20 07:33:00,
2013-03-20 03:38:00,36.6,14.5,30.01,West,281,9.2,9.2,40,0.00,CLR,SCT,0.00,WeatherDisplay:10.37,2013-03-20 07:38:00,
2013-03-20 03:43:00,36.5,14.4,30.01,North,11,8.1,8.1,40,0.00,CLR,SCT,0.00,WeatherDisplay:10.37,2013-03-20 07:43:00,
2013-03-20 03:48:00,36.5,15.0,30.01,ENE,62,6.9,6.9,41,0.00,CLR,SCT,0.00,WeatherDisplay:10.37,2013-03-20 07:48:00,
2013-03-20 03:53:00,36.4,14.9,30.01,NNE,24,5.8,5.8,41,0.00,CLR,SCT,0.00,WeatherDisplay:10.37,2013-03-20 07:53:00,
2013-03-20 03:58:00,36.2,14.7,30.01,NNE,20,6.5,6.5,41,0.00,CLR,SCT,0.00,WeatherDisplay:10.37,2013-03-20 07:58:00,
2013-03-20 04:03:00,36.0,14.5,30.01,North,352,9.2,9.2,41,0.00,CLR,SCT,0.00,WeatherDisplay:10.37,2013-03-20 08:03:00,
2013-03-20 04:08:00,35.9,15.0,30.01,NNE,27,5.8,5.8,42,0.00,CLR,SCT,0.00,WeatherDisplay:10.37,2013-03-20 08:08:00,
2013-03-20 04:13:00,36.0,15.1,30.00,North,349,3.5,3.5,42,0.00,CLR,SCT,0.00,WeatherDisplay:10.37,2013-03-20 08:13:00,
2013-03-20 04:18:00,35.9,14.4,30.00,NNW,347,5.8,5.8,41,0.00,CLR,SCT,0.00,WeatherDisplay:10.37,2013-03-20 08:18:00,
2013-03-20 04:23:00,35.8,14.9,30.00,ENE,59,5.8,5.8,42,0.00,CLR,SCT,0.00,WeatherDisplay:10.37,2013-03-20 08:23:00,
2013-03-20 04:28:00,35.8,14.9,30.00,North,10,1.1,1.1,42,0.00,CLR,SCT,0.00,WeatherDisplay:10.37,2013-03-20 08:28:00,
2013-03-20 04:33:00,35.6,15.3,30.00,NE,54,1.6,1.6,43,0.00,CLR,SCT,0.00,WeatherDisplay:10.37,2013-03-20 08:33:00,
2013-03-20 04:38:00,35.5,15.7,30.00,North,1,5.8,5.8,44,0.00,CLR,SCT,0.00,WeatherDisplay:10.37,2013-03-20 08:38:00,
2013-03-20 04:43:00,35.6,15.8,30.00,NNW,332,11.5,11.5,44,0.00,CLR,SCT,0.00,WeatherDisplay:10.37,2013-03-20 08:43:00,
2013-03-20 04:48:00,35.3,15.0,30.00,NE,47,5.8,5.8,43,0.00,CLR,SCT,0.00,WeatherDisplay:10.37,2013-03-20 08:48:00,
2013-03-20 04:53:00,35.4,15.6,30.00,ENE,65,0.0,0.0,44,0.00,CLR,SCT,0.00,WeatherDisplay:10.37,2013-03-20 08:53:00,
2013-03-20 04:58:00,35.4,15.6,30.00,East,83,2.3,2.3,44,0.00,CLR,SCT,0.00,WeatherDisplay:10.37,2013-03-20 08:58:00,
2013-03-20 05:03:00,35.3,15.0,30.00,NE,49,4.6,4.6,43,0.00,CLR,SCT,0.00,WeatherDisplay:10.37,2013-03-20 09:03:00,
2013-03-20 05:08:00,35.4,16.1,30.00,North,11,5.8,5.8,45,0.00,CLR,SCT,0.00,WeatherDisplay:10.37,2013-03-20 09:08:00,
2013-03-20 05:13:00,35.2,15.4,30.00,NW,318,4.6,4.6,44,0.00,CLR,SCT,0.00,WeatherDisplay:10.37,2013-03-20 09:13:00,
2013-03-20 05:18:00,35.1,15.8,30.00,NE,54,1.0,1.8,45,0.00,CLR,SCT,0.00,WeatherDisplay:10.37,2013-03-20 09:18:00,
2013-03-20 05:23:00,35.1,15.8,30.00,North,0,4.6,4.6,45,0.00,CLR,SCT,0.00,WeatherDisplay:10.37,2013-03-20 09:23:00,
2013-03-20 05:28:00,35.1,16.4,30.00,NNE,24,1.1,1.1,46,0.00,CLR,SCT,0.00,WeatherDisplay:10.37,2013-03-20 09:28:00,
2013-03-20 05:33:00,34.9,15.7,30.00,North,0,0.0,0.0,45,0.00,CLR,SCT,0.00,WeatherDisplay:10.37,2013-03-20 09:33:00,
2013-03-20 05:38:00,35.0,16.3,30.00,NNW,347,2.3,2.3,46,0.00,CLR,SCT,0.00,WeatherDisplay:10.37,2013-03-20 09:38:00,
2013-03-20 05:43:00,35.0,16.3,30.00,NNW,328,4.6,4.6,46,0.00,CLR,SCT,0.00,WeatherDisplay:10.37,2013-03-20 09:43:00,
2013-03-20 05:48:00,34.9,16.2,30.00,North,360,5.0,5.0,46,0.00,CLR,SCT,0.00,WeatherDisplay:10.37,2013-03-20 09:48:00,
2013-03-20 05:53:00,34.8,16.1,30.00,North,359,6.9,6.9,46,0.00,CLR,SCT,0.00,WeatherDisplay:10.37,2013-03-20 09:53:00,
2013-03-20 05:58:00,34.7,16.0,30.01,NNE,25,0.0,0.0,46,0.00,CLR,SCT,0.00,WeatherDisplay:10.37,2013-03-20 09:58:00,
2013-03-20 06:03:00,34.7,16.5,30.01,NNE,25,0.0,0.0,47,0.00,CLR,SCT,0.00,WeatherDisplay:10.37,2013-03-20 10:03:00,
2013-03-20 06:08:00,34.6,15.9,30.01,NW,312,5.8,5.8,46,0.00,CLR,SCT,0.00,WeatherDisplay:10.37,2013-03-20 10:08:00,
2013-03-20 06:13:00,34.7,16.0,30.01,NNW,329,0.0,0.0,46,0.00,CLR,SCT,0.00,WeatherDisplay:10.37,2013-03-20 10:13:00,
2013-03-20 06:18:00,34.6,16.4,30.01,North,8,0.0,0.5,47,0.00,CLR,SCT,0.00,WeatherDisplay:10.37,2013-03-20 10:18:00,
2013-03-20 06:23:00,34.5,16.3,30.01,North,8,0.0,0.0,47,0.00,CLR,SCT,0.00,WeatherDisplay:10.37,2013-03-20 10:23:00,
2013-03-20 06:28:00,34.5,15.8,30.01,North,359,3.7,3.7,46,0.00,CLR,SCT,0.00,WeatherDisplay:10.37,2013-03-20 10:28:00,
2013-03-20 06:33:00,34.5,15.8,30.01,West,278,2.3,0.0,46,0.00,CLR,SCT,0.00,WeatherDisplay:10.37,2013-03-20 10:33:00,
2013-03-20 06:38:00,34.4,16.2,30.01,WNW,285,2.3,2.3,47,0.00,CLR,SCT,0.00,WeatherDisplay:10.37,2013-03-20 10:38:00,
2013-03-20 06:44:00,34.3,16.1,30.01,North,0,1.1,1.1,47,0.00,CLR,SCT,0.00,WeatherDisplay:10.37,2013-03-20 10:44:00,
2013-03-20 06:49:00,34.4,16.2,30.01,WSW,253,0.8,3.0,47,0.00,CLR,SCT,0.00,WeatherDisplay:10.37,2013-03-20 10:49:00,
2013-03-20 06:54:00,34.2,16.0,30.01,NW,313,0.0,0.1,47,0.00,CLR,SCT,0.00,WeatherDisplay:10.37,2013-03-20 10:54:00,
2013-03-20 06:59:00,34.2,15.5,30.01,NNW,332,0.0,0.9,46,0.00,CLR,SCT,0.00,WeatherDisplay:10.37,2013-03-20 10:59:00,
2013-03-20 07:04:00,34.3,16.1,30.01,West,260,4.5,4.5,47,0.00,CLR,SCT,0.00,WeatherDisplay:10.37,2013-03-20 11:04:00,
2013-03-20 07:09:00,34.1,15.9,30.01,West,261,0.0,0.0,47,0.00,CLR,SCT,0.00,WeatherDisplay:10.37,2013-03-20 11:09:00,
2013-03-20 07:14:00,34.1,15.9,30.01,NW,311,3.5,3.5,47,0.00,CLR,SCT,0.00,WeatherDisplay:10.37,2013-03-20 11:14:00,
2013-03-20 07:19:00,34.0,15.8,30.01,WSW,254,3.5,3.5,47,0.00,CLR,SCT,0.00,WeatherDisplay:10.37,2013-03-20 11:19:00,
2013-03-20 07:24:00,33.9,15.7,30.01,SW,232,4.6,4.6,47,0.00,CLR,SCT,0.00,WeatherDisplay:10.37,2013-03-20 11:24:00,
2013-03-20 07:29:00,33.8,15.7,30.01,WSW,258,5.8,5.8,47,0.00,CLR,SCT,0.00,WeatherDisplay:10.37,2013-03-20 11:29:00,
2013-03-20 07:34:00,33.7,15.6,30.02,West,280,0.0,0.0,47,0.00,CLR,SCT,0.00,WeatherDisplay:10.37,2013-03-20 11:34:00,
2013-03-20 07:39:00,33.7,16.0,30.02,NNW,333,5.8,5.8,48,0.00,CLR,SCT,0.00,WeatherDisplay:10.37,2013-03-20 11:39:00,
2013-03-20 07:44:00,33.8,16.1,30.02,NNW,328,3.5,3.5,48,0.00,CLR,SCT,0.00,WeatherDisplay:10.37,2013-03-20 11:44:00,
2013-03-20 07:49:00,33.7,16.0,30.02,NW,312,3.5,3.5,48,0.00,CLR,SCT,0.00,WeatherDisplay:10.37,2013-03-20 11:49:00,
2013-03-20 07:54:00,33.7,16.0,30.03,NNW,333,4.6,4.6,48,0.00,CLR,SCT,0.00,WeatherDisplay:10.37,2013-03-20 11:54:00,
2013-03-20 07:59:00,33.8,16.1,30.03,WNW,294,6.5,6.5,48,0.00,CLR,SCT,0.00,WeatherDisplay:10.37,2013-03-20 11:59:00,
2013-03-20 08:04:00,33.8,16.1,30.03,North,354,6.9,6.9,48,0.00,CLR,SCT,0.00,WeatherDisplay:10.37,2013-03-20 12:04:00,
2013-03-20 08:09:00,33.8,16.1,30.03,WNW,292,2.3,0.0,48,0.00,CLR,SCT,0.00,WeatherDisplay:10.37,2013-03-20 12:09:00,
2013-03-20 08:14:00,33.8,16.1,30.03,WNW,301,3.5,3.5,48,0.00,CLR,SCT,0.00,WeatherDisplay:10.37,2013-03-20 12:14:00,
2013-03-20 08:19:00,33.8,16.1,30.03,NW,315,1.1,1.1,48,0.00,CLR,SCT,0.00,WeatherDisplay:10.37,2013-03-20 12:19:00,
2013-03-20 08:24:00,34.0,16.3,30.03,WSW,257,2.3,2.3,48,0.00,CLR,SCT,0.00,WeatherDisplay:10.37,2013-03-20 12:24:00,
2013-03-20 08:29:00,34.1,16.4,30.03,NNE,21,3.5,3.5,48,0.00,CLR,SCT,0.00,WeatherDisplay:10.37,2013-03-20 12:29:00,
2013-03-20 08:34:00,34.4,16.7,30.03,NE,34,0.0,0.0,48,0.00,CLR,SCT,0.00,WeatherDisplay:10.37,2013-03-20 12:34:00,
2013-03-20 08:39:00,34.9,16.7,30.03,NW,312,3.5,3.5,47,0.00,CLR,SCT,0.00,WeatherDisplay:10.37,2013-03-20 12:39:00,
2013-03-20 08:44:00,35.3,17.0,30.03,West,272,4.6,4.6,47,0.00,CLR,SCT,0.00,WeatherDisplay:10.37,2013-03-20 12:44:00,
2013-03-20 08:49:00,35.9,17.6,30.03,WNW,299,5.8,5.8,47,0.00,CLR,SCT,0.00,WeatherDisplay:10.37,2013-03-20 12:49:00,
2013-03-20 08:54:00,36.5,17.6,30.03,West,280,5.8,5.8,46,0.00,CLR,SCT,0.00,WeatherDisplay:10.37,2013-03-20 12:54:00,
2013-03-20 08:59:00,36.7,17.8,30.03,NE,35,4.6,4.6,46,0.00,CLR,SCT,0.00,WeatherDisplay:10.37,2013-03-20 12:59:00,
2013-03-20 09:04:00,37.0,17.6,30.03,NE,51,5.1,5.1,45,0.00,CLR,SCT,0.00,WeatherDisplay:10.37,2013-03-20 13:04:00,
2013-03-20 09:09:00,37.3,17.9,30.03,North,356,8.0,8.0,45,0.00,CLR,SCT,0.00,WeatherDisplay:10.37,2013-03-20 13:09:00,
2013-03-20 09:14:00,37.5,17.5,30.03,North,8,4.6,4.6,44,0.00,CLR,SCT,0.00,WeatherDisplay:10.37,2013-03-20 13:14:00,
2013-03-20 09:19:00,37.9,18.4,30.03,WNW,282,8.1,8.1,45,0.00,CLR,SCT,0.00,WeatherDisplay:10.37,2013-03-20 13:19:00,
2013-03-20 09:24:00,38.3,18.2,30.04,NE,45,8.1,8.1,44,0.00,CLR,SCT,0.00,WeatherDisplay:10.37,2013-03-20 13:24:00,
2013-03-20 09:29:00,38.7,18.6,30.04,NE,52,5.8,5.8,44,0.00,CLR,SCT,0.00,WeatherDisplay:10.37,2013-03-20 13:29:00,
2013-03-20 09:34:00,38.9,18.8,30.04,NE,44,6.9,6.9,44,0.00,CLR,SCT,0.00,WeatherDisplay:10.37,2013-03-20 13:34:00,
2013-03-20 09:39:00,39.3,19.2,30.04,North,350,10.4,10.4,44,0.00,CLR,SCT,0.00,WeatherDisplay:10.37,2013-03-20 13:39:00,
2013-03-20 09:44:00,39.4,19.3,30.04,NE,41,6.9,6.9,44,0.00,CLR,SCT,0.00,WeatherDisplay:10.37,2013-03-20 13:44:00,
2013-03-20 09:49:00,39.8,19.6,30.03,NNE,28,5.8,5.8,44,0.00,CLR,SCT,0.00,WeatherDisplay:10.37,2013-03-20 13:49:00,
2013-03-20 09:54:00,40.2,20.0,30.03,East,85,6.9,6.9,44,0.00,CLR,SCT,0.00,WeatherDisplay:10.37,2013-03-20 13:54:00,
2013-03-20 09:59:00,40.5,19.7,30.04,NE,56,9.2,9.2,43,0.00,CLR,SCT,0.00,WeatherDisplay:10.37,2013-03-20 13:59:00,
2013-03-20 10:04:00,40.6,19.8,30.04,North,357,4.6,4.6,43,0.00,CLR,SCT,0.00,WeatherDisplay:10.37,2013-03-20 14:04:00,
2013-03-20 10:09:00,40.8,20.0,30.03,ENE,76,6.3,6.3,43,0.00,CLR,SCT,0.00,WeatherDisplay:10.37,2013-03-20 14:09:00,
2013-03-20 10:14:00,41.3,20.4,30.03,NNE,13,4.6,4.6,43,0.00,CLR,SCT,0.00,WeatherDisplay:10.37,2013-03-20 14:14:00,
2013-03-20 10:19:00,41.8,20.9,30.03,ENE,65,12.7,12.7,43,0.00,CLR,SCT,0.00,WeatherDisplay:10.37,2013-03-20 14:19:00,
2013-03-20 10:24:00,42.1,20.6,30.03,WNW,301,4.6,4.6,42,0.00,CLR,SCT,0.00,WeatherDisplay:10.37,2013-03-20 14:24:00,
2013-03-20 10:29:00,42.3,20.8,30.03,NW,326,4.6,4.6,42,0.00,CLR,SCT,0.00,WeatherDisplay:10.37,2013-03-20 14:29:00,
2013-03-20 10:34:00,42.6,21.1,30.03,West,278,5.8,5.8,42,0.00,CLR,SCT,0.00,WeatherDisplay:10.37,2013-03-20 14:34:00,
2013-03-20 10:39:00,42.8,21.2,30.02,NNE,20,7.3,7.3,42,0.00,CLR,SCT,0.00,WeatherDisplay:10.37,2013-03-20 14:39:00,
2013-03-20 10:44:00,43.1,20.9,30.02,ENE,64,9.2,9.2,41,0.00,CLR,SCT,0.00,WeatherDisplay:10.37,2013-03-20 14:44:00,
2013-03-20 10:49:00,43.5,21.9,30.02,NNE,18,8.3,8.3,42,0.00,CLR,SCT,0.00,WeatherDisplay:10.37,2013-03-20 14:49:00,
2013-03-20 10:54:00,43.8,21.6,30.02,NNE,23,9.2,9.2,41,0.00,CLR,SCT,0.00,WeatherDisplay:10.37,2013-03-20 14:54:00,
2013-03-20 10:59:00,44.2,21.9,30.01,NNW,340,8.1,8.1,41,0.00,CLR,SCT,0.00,WeatherDisplay:10.37,2013-03-20 14:59:00,
2013-03-20 11:04:00,44.6,22.3,30.01,North,354,12.7,12.7,41,0.00,CLR,SCT,0.00,WeatherDisplay:10.37,2013-03-20 15:04:00,
2013-03-20 11:09:00,44.9,22.6,30.01,ENE,66,9.2,9.2,41,0.00,CLR,SCT,0.00,WeatherDisplay:10.37,2013-03-20 15:09:00,
2013-03-20 11:14:00,45.4,21.8,30.01,ENE,66,8.1,8.1,39,0.00,CLR,SCT,0.00,WeatherDisplay:10.37,2013-03-20 15:14:00,
2013-03-20 11:19:00,45.9,23.5,30.01,NNW,344,7.9,7.9,41,0.00,CLR,SCT,0.00,WeatherDisplay:10.37,2013-03-20 15:19:00,
2013-03-20 11:24:00,46.5,22.8,30.01,West,278,9.2,9.2,39,0.00,CLR,SCT,0.00,WeatherDisplay:10.37,2013-03-20 15:24:00,
2013-03-20 11:29:00,46.9,23.2,30.00,NNE,16,11.0,11.0,39,0.00,CLR,SCT,0.00,WeatherDisplay:10.37,2013-03-20 15:29:00,
2013-03-20 11:34:00,47.2,22.8,30.00,North,359,17.3,17.3,38,0.00,CLR,SCT,0.00,WeatherDisplay:10.37,2013-03-20 15:34:00,
2013-03-20 11:39:00,47.3,22.9,30.00,ENE,58,8.1,8.1,38,0.00,CLR,SCT,0.00,WeatherDisplay:10.37,2013-03-20 15:39:00,
2013-03-20 11:44:00,48.0,23.6,30.00,West,278,4.6,4.6,38,0.00,CLR,SCT,0.00,WeatherDisplay:10.37,2013-03-20 15:44:00,
2013-03-20 11:49:00,48.6,24.1,30.00,NNW,330,12.7,12.7,38,0.00,CLR,SCT,0.00,WeatherDisplay:10.37,2013-03-20 15:49:00,
2013-03-20 11:54:00,49.0,23.2,29.99,West,270,9.2,9.2,36,0.00,CLR,SCT,0.00,WeatherDisplay:10.37,2013-03-20 15:54:00,
2013-03-20 11:59:00,48.9,23.7,29.99,North,10,9.2,9.2,37,0.00,CLR,SCT,0.00,WeatherDisplay:10.37,2013-03-20 15:59:00,
2013-03-20 12:04:00,49.2,23.3,29.99,NNE,31,12.7,12.7,36,0.00,CLR,SCT,0.00,WeatherDisplay:10.37,2013-03-20 16:04:00,
2013-03-20 12:09:00,49.5,23.6,29.99,WNW,288,8.1,8.1,36,0.00,CLR,SCT,0.00,WeatherDisplay:10.37,2013-03-20 16:09:00,
2013-03-20 12:14:00,50.3,25.0,29.99,NW,323,8.1,8.1,37,0.00,CLR,SCT,0.00,WeatherDisplay:10.37,2013-03-20 16:14:00,
2013-03-20 12:19:00,50.5,23.1,29.99,WNW,298,15.0,15.0,34,0.00,CLR,SCT,0.00,WeatherDisplay:10.37,2013-03-20 16:19:00,
2013-03-20 12:25:00,50.0,22.7,29.98,NNW,335,15.0,15.0,34,0.00,CLR,SCT,0.00,WeatherDisplay:10.37,2013-03-20 16:25:00,
2013-03-20 12:30:00,50.3,23.6,29.98,NE,44,13.8,13.8,35,0.00,CLR,SCT,0.00,WeatherDisplay:10.37,2013-03-20 16:30:00,
2013-03-20 12:35:00,50.8,24.1,29.98,NNE,17,11.5,11.5,35,0.00,CLR,SCT,0.00,WeatherDisplay:10.37,2013-03-20 16:35:00,
2013-03-20 12:40:00,51.2,23.7,29.97,NNE,25,13.8,13.8,34,0.00,CLR,SCT,0.00,WeatherDisplay:10.37,2013-03-20 16:40:00,
2013-03-20 12:45:00,51.5,24.0,29.97,North,357,11.5,11.5,34,0.00,CLR,SCT,0.00,WeatherDisplay:10.37,2013-03-20 16:45:00,
2013-03-20 12:50:00,51.9,23.6,29.97,East,100,9.2,9.2,33,0.00,CLR,SCT,0.00,WeatherDisplay:10.37,2013-03-20 16:50:00,
2013-03-20 12:55:00,52.3,24.7,29.96,NW,316,9.2,9.2,34,0.00,CLR,SCT,0.00,WeatherDisplay:10.37,2013-03-20 16:55:00,
2013-03-20 13:00:00,52.9,24.5,29.96,NW,312,10.4,10.4,33,0.00,CLR,SCT,0.00,WeatherDisplay:10.37,2013-03-20 17:00:00,
2013-03-20 13:05:00,52.9,24.5,29.95,WSW,247,9.2,9.2,33,0.00,CLR,SCT,0.00,WeatherDisplay:10.37,2013-03-20 17:05:00,
2013-03-20 13:10:00,53.3,24.9,29.95,NNW,333,9.3,9.3,33,0.00,CLR,SCT,0.00,WeatherDisplay:10.37,2013-03-20 17:10:00,
2013-03-20 13:15:00,53.8,24.6,29.95,SW,236,11.5,11.5,32,0.00,CLR,SCT,0.00,WeatherDisplay:10.37,2013-03-20 17:15:00,
2013-03-20 13:20:00,54.2,24.9,29.95,NW,320,10.4,10.4,32,0.00,CLR,SCT,0.00,WeatherDisplay:10.37,2013-03-20 17:20:00,
2013-03-20 13:25:00,54.8,25.5,29.94,SW,232,6.9,6.9,32,0.00,CLR,SCT,0.00,WeatherDisplay:10.37,2013-03-20 17:25:00,
2013-03-20 13:30:00,54.4,21.9,29.94,NNW,328,21.9,21.9,28,0.00,CLR,SCT,0.00,WeatherDisplay:10.37,2013-03-20 17:30:00,
2013-03-20 13:35:00,53.7,22.1,29.94,NNE,27,18.4,18.4,29,0.00,CLR,SCT,0.00,WeatherDisplay:10.37,2013-03-20 17:35:00,
2013-03-20 13:40:00,53.1,21.6,29.93,WSW,258,6.0,21.0,29,0.00,CLR,SCT,0.00,WeatherDisplay:10.37,2013-03-20 17:40:00,
2013-03-20 13:45:00,53.3,23.4,29.93,WNW,288,12.7,12.7,31,0.00,CLR,SCT,0.00,WeatherDisplay:10.37,2013-03-20 17:45:00,
2013-03-20 13:50:00,53.6,22.1,29.92,West,267,17.3,17.3,29,0.00,CLR,SCT,0.00,WeatherDisplay:10.37,2013-03-20 17:50:00,
2013-03-20 13:55:00,53.5,22.0,29.92,WNW,301,16.1,16.1,29,0.00,CLR,SCT,0.00,WeatherDisplay:10.37,2013-03-20 17:55:00,
2013-03-20 14:00:00,53.7,22.9,29.91,WNW,294,8.1,8.1,30,0.00,CLR,SCT,0.00,WeatherDisplay:10.37,2013-03-20 18:00:00,
2013-03-20 14:05:00,54.1,22.5,29.91,West,270,6.9,6.9,29,0.00,CLR,SCT,0.00,WeatherDisplay:10.37,2013-03-20 18:05:00,
2013-03-20 14:10:00,54.6,23.7,29.90,North,354,16.1,16.1,30,0.00,CLR,SCT,0.00,WeatherDisplay:10.37,2013-03-20 18:10:00,
2013-03-20 14:15:00,55.3,23.5,29.90,NW,306,6.9,6.9,29,0.00,CLR,SCT,0.00,WeatherDisplay:10.37,2013-03-20 18:15:00,
2013-03-20 14:20:00,55.6,20.3,29.90,SE,137,15.0,15.0,25,0.00,CLR,SCT,0.00,WeatherDisplay:10.37,2013-03-20 18:20:00,
2013-03-20 14:25:00,55.3,22.7,29.90,WNW,289,12.7,12.7,28,0.00,CLR,SCT,0.00,WeatherDisplay:10.37,2013-03-20 18:25:00,
2013-03-20 14:30:00,55.4,21.9,29.89,WSW,240,10.4,10.4,27,0.00,CLR,SCT,0.00,WeatherDisplay:10.37,2013-03-20 18:30:00,
2013-03-20 14:35:00,55.3,20.9,29.88,West,270,16.1,16.1,26,0.00,CLR,SCT,0.00,WeatherDisplay:10.37,2013-03-20 18:35:00,
2013-03-20 14:40:00,54.9,20.6,29.88,WNW,285,15.0,15.0,26,0.00,CLR,SCT,0.00,WeatherDisplay:10.37,2013-03-20 18:40:00,
2013-03-20 14:45:00,55.2,20.8,29.87,West,260,16.1,16.1,26,0.00,CLR,SCT,0.00,WeatherDisplay:10.37,2013-03-20 18:45:00,
2013-03-20 14:50:00,55.7,21.3,29.87,WNW,291,13.8,13.8,26,0.00,CLR,SCT,0.00,WeatherDisplay:10.37,2013-03-20 18:50:00,
2013-03-20 14:55:00,56.3,22.7,29.87,West,263,9.2,9.2,27,0.00,CLR,SCT,0.00,WeatherDisplay:10.37,2013-03-20 18:55:00,
2013-03-20 15:00:00,57.2,22.6,29.86,SSW,202,9.2,9.2,26,0.00,CLR,SCT,0.00,WeatherDisplay:10.37,2013-03-20 19:00:00,
2013-03-20 15:05:00,57.3,19.8,29.86,WNW,291,23.0,23.0,23,0.00,CLR,SCT,0.00,WeatherDisplay:10.37,2013-03-20 19:05:00,
2013-03-20 15:10:00,56.2,19.8,29.86,WSW,244,10.4,10.4,24,0.00,CLR,SCT,0.00,WeatherDisplay:10.37,2013-03-20 19:10:00,
2013-03-20 15:15:00,56.0,21.5,29.85,NNW,347,6.8,6.8,26,0.00,CLR,SCT,0.00,WeatherDisplay:10.37,2013-03-20 19:15:00,
2013-03-20 15:20:00,57.2,22.6,29.85,NW,313,8.1,8.1,26,0.00,CLR,SCT,0.00,WeatherDisplay:10.37,2013-03-20 19:20:00,
2013-03-20 15:25:00,58.0,21.3,29.85,NNE,13,15.0,15.0,24,0.00,CLR,SCT,0.00,WeatherDisplay:10.37,2013-03-20 19:25:00,
2013-03-20 15:30:00,57.8,21.2,29.85,SW,223,15.0,15.0,24,0.00,CLR,SCT,0.00,WeatherDisplay:10.37,2013-03-20 19:30:00,
2013-03-20 15:35:00,57.5,20.9,29.85,WNW,301,10.4,10.4,24,0.00,CLR,SCT,0.00,WeatherDisplay:10.37,2013-03-20 19:35:00,
2013-03-20 15:40:00,57.6,22.0,29.84,NNW,344,10.4,10.4,25,0.00,CLR,SCT,0.00,WeatherDisplay:10.37,2013-03-20 19:40:00,
2013-03-20 15:45:00,57.6,19.0,29.83,West,274,11.5,11.5,22,0.00,CLR,SCT,0.00,WeatherDisplay:10.37,2013-03-20 19:45:00,
2013-03-20 15:50:00,56.3,19.9,29.83,WSW,246,11.1,11.1,24,0.00,CLR,SCT,0.00,WeatherDisplay:10.37,2013-03-20 19:50:00,
2013-03-20 15:55:00,56.1,19.7,29.83,East,99,10.4,10.4,24,0.00,CLR,SCT,0.00,WeatherDisplay:10.37,2013-03-20 19:55:00,
2013-03-20 16:00:00,55.7,19.4,29.83,WSW,239,10.4,10.4,24,0.00,CLR,SCT,0.00,WeatherDisplay:10.37,2013-03-20 20:00:00,
2013-03-20 16:05:00,55.9,19.6,29.82,West,270,11.5,11.5,24,0.00,FEW,SCT,0.00,WeatherDisplay:10.37,2013-03-20 20:05:00,
2013-03-20 16:10:00,56.8,20.3,29.82,North,359,12.7,12.7,24,0.00,FEW,SCT,0.00,WeatherDisplay:10.37,2013-03-20 20:10:00,
2013-03-20 16:15:00,57.6,22.0,29.82,WSW,246,9.2,9.2,25,0.00,FEW,SCT,0.00,WeatherDisplay:10.37,2013-03-20 20:15:00,
2013-03-20 16:20:00,57.7,21.1,29.82,NW,305,10.4,10.4,24,0.00,FEW,SCT,0.00,WeatherDisplay:10.37,2013-03-20 20:20:00,
2013-03-20 16:25:00,57.4,19.8,29.82,WNW,285,12.7,12.7,23,0.00,FEW,SCT,0.00,WeatherDisplay:10.37,2013-03-20 20:25:00,
2013-03-20 16:30:00,56.5,19.1,29.81,SW,222,12.7,12.7,23,0.00,FEW,SCT,0.00,WeatherDisplay:10.37,2013-03-20 20:30:00,
2013-03-20 16:35:00,55.6,19.3,29.82,NW,322,12.7,12.7,24,0.00,FEW,SCT,0.00,WeatherDisplay:10.37,2013-03-20 20:35:00,
2013-03-20 16:40:00,55.1,18.9,29.81,SSW,200,10.4,10.4,24,0.00,FEW,SCT,0.00,WeatherDisplay:10.37,2013-03-20 20:40:00,
2013-03-20 16:45:00,54.8,18.6,29.81,NW,313,7.0,7.0,24,0.00,FEW,SCT,0.00,WeatherDisplay:10.37,2013-03-20 20:45:00,
2013-03-20 16:50:00,54.7,18.5,29.81,SW,224,15.5,15.5,24,0.00,FEW,SCT,0.00,WeatherDisplay:10.37,2013-03-20 20:50:00,
2013-03-20 16:55:00,53.8,17.8,29.81,NW,308,13.8,13.8,24,0.00,FEW,SCT,0.00,WeatherDisplay:10.37,2013-03-20 20:55:00,
2013-03-20 17:00:00,52.7,17.8,29.81,WSW,248,11.5,11.5,25,0.00,FEW,SCT,0.00,WeatherDisplay:10.37,2013-03-20 21:00:00,
2013-03-20 17:05:00,51.9,17.1,29.80,West,275,11.5,11.5,25,0.00,SCT,,0.00,WeatherDisplay:10.37,2013-03-20 21:05:00,
2013-03-20 17:10:00,51.6,16.9,29.80,WSW,243,17.9,17.9,25,0.00,SCT,,0.00,WeatherDisplay:10.37,2013-03-20 21:10:00,
2013-03-20 17:15:00,51.7,18.7,29.80,WSW,243,6.9,6.9,27,0.00,SCT,,0.00,WeatherDisplay:10.37,2013-03-20 21:15:00,
2013-03-20 17:20:00,52.5,18.5,29.79,WNW,298,13.8,13.8,26,0.00,SCT,,0.00,WeatherDisplay:10.37,2013-03-20 21:20:00,
2013-03-20 17:25:00,52.3,16.5,29.79,West,274,12.7,12.7,24,0.00,SCT,,0.00,WeatherDisplay:10.37,2013-03-20 21:25:00,
2013-03-20 17:30:00,53.0,19.0,29.78,WNW,291,9.2,9.2,26,0.00,SCT,,0.00,WeatherDisplay:10.37,2013-03-20 21:30:00,
2013-03-20 17:35:00,53.3,18.3,29.78,NNE,14,8.1,8.1,25,0.00,SCT,,0.00,WeatherDisplay:10.37,2013-03-20 21:35:00,
2013-03-20 17:40:00,53.5,19.4,29.78,West,281,10.4,10.4,26,0.00,SCT,,0.00,WeatherDisplay:10.37,2013-03-20 21:40:00,
2013-03-20 17:45:00,53.6,19.5,29.78,West,272,10.4,10.4,26,0.00,SCT,,0.00,WeatherDisplay:10.37,2013-03-20 21:45:00,
2013-03-20 17:50:00,53.7,17.7,29.78,East,96,15.0,15.0,24,0.00,SCT,,0.00,WeatherDisplay:10.37,2013-03-20 21:50:00,
2013-03-20 17:55:00,53.0,17.1,29.78,NNW,332,12.7,12.7,24,0.00,SCT,,0.00,WeatherDisplay:10.37,2013-03-20 21:55:00,
2013-03-20 18:00:00,52.0,15.3,29.78,WSW,244,21.9,21.9,23,0.00,SCT,,0.00,WeatherDisplay:10.37,2013-03-20 22:00:00,
2013-03-20 18:05:00,51.2,15.6,29.77,WSW,243,13.8,13.8,24,0.00,BKN,SCT,0.00,WeatherDisplay:10.37,2013-03-20 22:05:00,
2013-03-20 18:10:00,50.5,16.8,29.77,SSW,205,13.8,13.8,26,0.00,BKN,SCT,0.00,WeatherDisplay:10.37,2013-03-20 22:10:00,
2013-03-20 18:15:00,50.2,16.6,29.77,WSW,240,10.4,10.4,26,0.00,BKN,SCT,0.00,WeatherDisplay:10.37,2013-03-20 22:15:00,
2013-03-20 18:20:00,50.0,17.3,29.77,SW,230,10.4,10.4,27,0.00,BKN,SCT,0.00,WeatherDisplay:10.37,2013-03-20 22:20:00,
2013-03-20 18:25:00,49.8,16.2,29.77,SW,226,18.4,18.4,26,0.00,BKN,SCT,0.00,WeatherDisplay:10.37,2013-03-20 22:25:00,
2013-03-20 18:30:00,49.5,16.8,29.77,WSW,239,18.4,18.4,27,0.00,BKN,SCT,0.00,WeatherDisplay:10.37,2013-03-20 22:30:00,
2013-03-20 18:35:00,49.1,17.3,29.76,SSW,208,12.7,12.7,28,0.00,BKN,SCT,0.00,WeatherDisplay:10.37,2013-03-20 22:35:00,
2013-03-20 18:40:00,48.8,16.2,29.77,WNW,285,14.3,14.3,27,0.00,BKN,SCT,0.00,WeatherDisplay:10.37,2013-03-20 22:40:00,
2013-03-20 18:45:00,48.5,16.8,29.76,WNW,291,9.5,9.5,28,0.00,BKN,SCT,0.00,WeatherDisplay:10.37,2013-03-20 22:45:00,
2013-03-20 18:50:00,48.4,16.7,29.77,SW,229,10.4,10.4,28,0.00,BKN,SCT,0.00,WeatherDisplay:10.37,2013-03-20 22:50:00,
2013-03-20 18:55:00,48.3,14.9,29.77,WNW,292,14.4,14.4,26,0.00,BKN,SCT,0.00,WeatherDisplay:10.37,2013-03-20 22:55:00,
2013-03-20 19:00:00,48.2,15.7,29.77,WNW,298,10.4,10.4,27,0.00,BKN,SCT,0.00,WeatherDisplay:10.37,2013-03-20 23:00:00,
2013-03-20 19:05:00,47.9,16.3,29.76,NNE,30,8.5,8.5,28,0.00,SCT,,0.00,WeatherDisplay:10.37,2013-03-20 23:05:00,
2013-03-20 19:10:00,47.8,16.2,29.77,West,270,5.8,5.8,28,0.00,SCT,,0.00,WeatherDisplay:10.37,2013-03-20 23:10:00,
2013-03-20 19:15:00,47.6,16.8,29.77,West,277,7.8,7.8,29,0.00,SCT,,0.00,WeatherDisplay:10.37,2013-03-20 23:15:00,
2013-03-20 19:20:00,47.6,16.0,29.77,NW,311,9.2,9.2,28,0.00,SCT,,0.00,WeatherDisplay:10.37,2013-03-20 23:20:00,
2013-03-20 19:25:00,47.3,16.6,29.77,SSW,210,13.5,13.5,29,0.00,SCT,,0.00,WeatherDisplay:10.37,2013-03-20 23:25:00,
2013-03-20 19:30:00,47.3,15.8,29.77,West,260,11.5,11.5,28,0.00,SCT,,0.00,WeatherDisplay:10.37,2013-03-20 23:30:00,
2013-03-20 19:35:00,47.1,16.4,29.77,West,263,16.1,16.1,29,0.00,SCT,,0.00,WeatherDisplay:10.37,2013-03-20 23:35:00,
2013-03-20 19:40:00,47.0,16.3,29.77,SW,216,12.7,12.7,29,0.00,SCT,,0.00,WeatherDisplay:10.37,2013-03-20 23:40:00,
2013-03-20 19:45:00,46.8,16.1,29.77,WSW,237,9.2,9.2,29,0.00,SCT,,0.00,WeatherDisplay:10.37,2013-03-20 23:45:00,
2013-03-20 19:50:00,46.7,16.1,29.77,WSW,239,5.8,5.8,29,0.00,SCT,,0.00,WeatherDisplay:10.37,2013-03-20 23:50:00,
2013-03-20 19:55:00,46.6,16.0,29.76,West,267,4.4,4.4,29,0.00,SCT,,0.00,WeatherDisplay:10.37,2013-03-20 23:55:00,
2013-03-20 20:00:00,46.7,16.1,29.76,SW,230,4.6,4.6,29,0.00,SCT,,0.00,WeatherDisplay:10.37,2013-03-21 00:00:00,
2013-03-20 20:05:00,46.6,16.0,29.76,WSW,246,5.8,5.8,29,0.00,SCT,,0.00,WeatherDisplay:10.37,2013-03-21 00:05:00,
2013-03-20 20:10:00,46.5,16.7,29.76,SSW,206,4.6,4.6,30,0.00,SCT,,0.00,WeatherDisplay:10.37,2013-03-21 00:10:00,
2013-03-20 20:15:00,46.3,16.5,29.76,SW,234,9.2,9.2,30,0.00,SCT,,0.00,WeatherDisplay:10.37,2013-03-21 00:15:00,
2013-03-20 20:20:00,46.1,17.1,29.76,SW,219,9.2,9.2,31,0.00,SCT,,0.00,WeatherDisplay:10.37,2013-03-21 00:20:00,
2013-03-20 20:25:00,45.9,16.9,29.76,WNW,291,6.9,6.9,31,0.00,SCT,,0.00,WeatherDisplay:10.37,2013-03-21 00:25:00,
2013-03-20 20:30:00,45.9,16.9,29.76,West,275,8.1,8.1,31,0.00,SCT,,0.00,WeatherDisplay:10.37,2013-03-21 00:30:00,
2013-03-20 20:35:00,45.7,16.7,29.76,WSW,257,8.1,8.1,31,0.00,SCT,,0.00,WeatherDisplay:10.37,2013-03-21 00:35:00,
2013-03-20 20:40:00,45.7,17.5,29.76,WNW,285,4.6,4.6,32,0.00,SCT,,0.00,WeatherDisplay:10.37,2013-03-21 00:40:00,
2013-03-20 20:45:00,45.6,17.4,29.76,WSW,256,6.9,6.9,32,0.00,SCT,,0.00,WeatherDisplay:10.37,2013-03-21 00:45:00,
2013-03-20 20:51:00,45.5,17.3,29.76,WSW,250,8.1,8.1,32,0.00,SCT,,0.00,WeatherDisplay:10.37,2013-03-21 00:51:00,
2013-03-20 20:56:00,45.3,17.1,29.75,WSW,258,4.6,4.6,32,0.00,SCT,,0.00,WeatherDisplay:10.37,2013-03-21 00:56:00,
2013-03-20 21:01:00,45.3,17.1,29.75,South,189,3.5,3.5,32,0.00,SCT,,0.00,WeatherDisplay:10.37,2013-03-21 01:01:00,
2013-03-20 21:06:00,45.2,17.0,29.76,SSW,195,2.9,2.9,32,0.00,FEW,SCT,0.00,WeatherDisplay:10.37,2013-03-21 01:06:00,
2013-03-20 21:11:00,45.0,16.9,29.76,South,174,3.5,3.5,32,0.00,FEW,SCT,0.00,WeatherDisplay:10.37,2013-03-21 01:11:00,
2013-03-20 21:16:00,44.8,16.7,29.75,South,182,5.1,5.1,32,0.00,FEW,SCT,0.00,WeatherDisplay:10.37,2013-03-21 01:16:00,
2013-03-20 21:21:00,44.5,17.1,29.75,SSW,203,4.6,4.6,33,0.00,FEW,SCT,0.00,WeatherDisplay:10.37,2013-03-21 01:21:00,
2013-03-20 21:26:00,44.4,17.0,29.75,South,176,4.6,4.6,33,0.00,FEW,SCT,0.00,WeatherDisplay:10.37,2013-03-21 01:26:00,
2013-03-20 21:31:00,44.2,16.9,29.75,SW,219,4.6,4.6,33,0.00,FEW,SCT,0.00,WeatherDisplay:10.37,2013-03-21 01:31:00,
2013-03-20 21:36:00,44.1,16.8,29.75,South,189,5.8,5.8,33,0.00,FEW,SCT,0.00,WeatherDisplay:10.37,2013-03-21 01:36:00,
2013-03-20 21:41:00,44.0,17.4,29.75,South,182,2.3,2.3,34,0.00,FEW,SCT,0.00,WeatherDisplay:10.37,2013-03-21 01:41:00,
2013-03-20 21:46:00,43.8,17.2,29.75,West,281,3.5,3.5,34,0.00,FEW,SCT,0.00,WeatherDisplay:10.37,2013-03-21 01:46:00,
2013-03-20 21:51:00,44.1,16.8,29.75,WNW,284,9.2,9.2,33,0.00,FEW,SCT,0.00,WeatherDisplay:10.37,2013-03-21 01:51:00,
2013-03-20 21:56:00,44.0,17.4,29.74,SW,236,2.3,2.3,34,0.00,FEW,SCT,0.00,WeatherDisplay:10.37,2013-03-21 01:56:00,
2013-03-20 22:01:00,44.1,17.5,29.75,West,277,3.5,3.5,34,0.00,FEW,SCT,0.00,WeatherDisplay:10.37,2013-03-21 02:01:00,
2013-03-20 22:06:00,43.8,17.2,29.75,West,267,2.3,2.3,34,0.00,BKN,SCT,0.00,WeatherDisplay:10.37,2013-03-21 02:06:00,
2013-03-20 22:11:00,43.7,17.8,29.75,NE,44,4.6,4.6,35,0.00,BKN,SCT,0.00,WeatherDisplay:10.37,2013-03-21 02:11:00,
2013-03-20 22:16:00,43.6,19.0,29.75,North,0,3.0,3.0,37,0.00,BKN,SCT,0.00,WeatherDisplay:10.37,2013-03-21 02:16:00,
2013-03-20 22:21:00,43.3,18.7,29.75,North,356,0.0,0.0,37,0.00,BKN,SCT,0.00,WeatherDisplay:10.37,2013-03-21 02:21:00,
2013-03-20 22:27:00,43.2,18.6,29.75,North,356,0.0,0.0,37,0.00,BKN,SCT,0.00,WeatherDisplay:10.37,2013-03-21 02:27:00,
2013-03-20 22:32:00,43.1,17.9,29.75,North,356,0.0,0.0,36,0.00,BKN,SCT,0.00,WeatherDisplay:10.37,2013-03-21 02:32:00,
2013-03-20 22:37:00,43.1,18.5,29.75,North,7,3.5,3.7,37,0.00,BKN,SCT,0.00,WeatherDisplay:10.37,2013-03-21 02:37:00,
2013-03-20 22:42:00,42.8,18.9,29.75,NNE,31,2.7,0.0,38,0.00,BKN,SCT,0.00,WeatherDisplay:10.37,2013-03-21 02:42:00,
2013-03-20 22:47:00,42.6,18.7,29.76,NNE,27,2.3,2.3,38,0.00,BKN,SCT,0.00,WeatherDisplay:10.37,2013-03-21 02:47:00,
2013-03-20 22:52:00,42.5,19.2,29.76,NNW,337,6.9,6.9,39,0.00,BKN,SCT,0.00,WeatherDisplay:10.37,2013-03-21 02:52:00,
2013-03-20 22:57:00,42.3,19.1,29.76,NE,42,2.4,2.4,39,0.00,BKN,SCT,0.00,WeatherDisplay:10.37,2013-03-21 02:57:00,
2013-03-20 23:02:00,42.1,19.5,29.76,West,277,6.9,6.9,40,0.00,CLR,SCT,0.00,WeatherDisplay:10.37,2013-03-21 03:02:00,
2013-03-20 23:07:00,41.7,19.7,29.75,East,79,5.8,5.8,41,0.00,CLR,SCT,0.00,WeatherDisplay:10.37,2013-03-21 03:07:00,
2013-03-20 23:12:00,41.6,20.2,29.75,North,1,5.8,5.8,42,0.00,CLR,SCT,0.00,WeatherDisplay:10.37,2013-03-21 03:12:00,
2013-03-20 23:17:00,41.4,20.0,29.76,NE,49,6.9,6.9,42,0.00,CLR,SCT,0.00,WeatherDisplay:10.37,2013-03-21 03:17:00,
2013-03-20 23:22:00,41.2,21.4,29.76,NNE,31,8.1,8.1,45,0.00,CLR,SCT,0.00,WeatherDisplay:10.37,2013-03-21 03:22:00,
2013-03-20 23:27:00,41.1,21.3,29.76,East,79,10.4,10.4,45,0.00,CLR,SCT,0.00,WeatherDisplay:10.37,2013-03-21 03:27:00,
2013-03-20 23:32:00,40.7,22.5,29.76,NE,37,6.1,6.1,48,0.00,CLR,SCT,0.00,WeatherDisplay:10.37,2013-03-21 03:32:00,
2013-03-20 23:37:00,40.5,23.8,29.77,NE,55,10.4,10.4,51,0.00,CLR,SCT,0.00,WeatherDisplay:10.37,2013-03-21 03:37:00,
2013-03-20 23:42:00,39.9,24.6,29.77,NNW,328,6.9,6.9,54,0.00,CLR,SCT,0.00,WeatherDisplay:10.37,2013-03-21 03:42:00,
2013-03-20 23:47:00,39.7,25.3,29.77,NNW,346,11.5,11.5,56,0.00,CLR,SCT,0.00,WeatherDisplay:10.37,2013-03-21 03:47:00,
2013-03-20 23:52:00,39.4,25.4,29.77,WNW,288,5.8,5.8,57,0.00,CLR,SCT,0.00,WeatherDisplay:10.37,2013-03-21 03:52:00,
2013-03-20 23:57:00,39.2,26.0,29.78,NNE,18,4.6,4.6,59,0.00,CLR,SCT,0.00,WeatherDisplay:10.37,2013-03-21 03:57:00,